Time;durP1;ratioP1;P1;durP2;ratioP2;P2;SDS_P1;SDS_P2;PMS_P1;PMS_P2;Temp;Humidity;BMP_temperature;BMP_pressure;BME280_temperature;BME280_humidity;BME280_pressure;Samples;Min_cycle;Max_cycle;Signal;HPM_P1;HPM_P2
2022/09/24 00:01:53;;;;;;;;;;;;;;;20.12;100.00;98663.84;5057210;28;19920;-45
2022/09/24 00:04:18;;;;;;;;;;;;;;;20.01;100.00;98660.25;5061285;28;19931;-45
2022/09/24 00:06:45;;;;;;;;;;;;;;;19.99;100.00;98656.91;5036191;28;20305;-45
2022/09/24 00:09:13;;;;;;;;;;;;;;;20.10;100.00;98650.06;5052036;28;19936;-45
2022/09/24 00:11:39;;;;;;;;;;;;;;;19.90;100.00;98644.56;5050752;28;19987;-46
2022/09/24 00:14:05;;;;;;;;;;;;;;;19.80;100.00;98648.81;5038200;28;19925;-46
2022/09/24 00:16:32;;;;;;;;;;;;;;;20.04;100.00;98646.94;5055388;28;19920;-45
2022/09/24 00:18:58;;;;;;;;;;;;;;;20.06;100.00;98629.34;5059655;28;20278;-45
2022/09/24 00:21:24;;;;;;;;;;;;;;;20.05;100.00;98643.38;5051017;28;19924;-45
2022/09/24 00:23:50;;;;;;;;;;;;;;;19.59;100.00;98631.19;5051490;28;20015;-45
2022/09/24 00:29:00;;;;;;;;;;;;;;;19.79;100.00;98627.06;5036516;28;20019;-45
2022/09/24 00:31:25;;;;;;;;;;;;;;;19.97;100.00;98627.44;5065673;28;20032;-45
2022/09/24 00:33:51;;;;;;;;;;;;;;;20.04;100.00;98630.44;5068627;28;20057;-45
2022/09/24 00:36:17;;;;;;;;;;;;;;;20.23;100.00;98621.97;5071208;28;19920;-45
2022/09/24 00:38:42;;;;;;;;;;;;;;;20.21;100.00;98626.53;5053132;28;19962;-45
2022/09/24 00:41:07;;;;;;;;;;;;;;;20.25;100.00;98627.94;5070211;28;19970;-45
2022/09/24 00:43:34;;;;;;;;;;;;;;;20.24;100.00;98626.28;5069955;28;19920;-45
2022/09/24 00:46:14;;;;;;;;;;;;;;;20.25;100.00;98625.31;5059788;28;19917;-45
2022/09/24 00:48:40;;;;;;;;;;;;;;;20.06;100.00;98623.31;5055048;28;19916;-46
2022/09/24 00:51:06;;;;;;;;;;;;;;;19.96;100.00;98623.19;5050870;28;19973;-46
2022/09/24 00:53:32;;;;;;;;;;;;;;;20.23;100.00;98620.22;5049742;28;19924;-46
2022/09/24 00:55:57;;;;;;;;;;;;;;;19.99;100.00;98611.66;5067154;28;19924;-46
2022/09/24 00:58:22;;;;;;;;;;;;;;;20.03;100.00;98613.91;5033062;28;19913;-46
2022/09/24 01:00:48;;;;;;;;;;;;;;;20.11;100.00;98620.31;5039615;28;20443;-46
2022/09/24 01:03:14;;;;;;;;;;;;;;;20.09;100.00;98622.22;5043649;28;20053;-45
2022/09/24 01:05:39;;;;;;;;;;;;;;;20.08;100.00;98617.97;5043257;28;19956;-46
2022/09/24 01:08:05;;;;;;;;;;;;;;;19.80;100.00;98607.03;5063891;28;19955;-45
2022/09/24 01:10:49;;;;;;;;;;;;;;;19.79;100.00;98621.00;5054412;28;19943;-45
2022/09/24 01:13:27;;;;;;;;;;;;;;;19.91;100.00;98614.00;5046114;28;19948;-46
2022/09/24 01:16:19;;;;;;;;;;;;;;;19.86;100.00;98616.97;5055875;28;20023;-46
2022/09/24 01:19:04;;;;;;;;;;;;;;;19.86;100.00;98616.97;5026200;28;19924;-45
2022/09/24 01:21:37;;;;;;;;;;;;;;;19.81;100.00;98624.34;5058026;28;19917;-45
2022/09/24 01:24:03;;;;;;;;;;;;;;;19.58;100.00;98619.03;5055458;28;20301;-45
2022/09/24 01:26:31;;;;;;;;;;;;;;;19.73;100.00;98618.84;5060747;28;19916;-45
2022/09/24 01:29:14;;;;;;;;;;;;;;;19.73;100.00;98618.84;5060926;28;20017;-44
2022/09/24 01:31:43;;;;;;;;;;;;;;;19.69;100.00;98620.06;5048756;28;19916;-43
2022/09/24 01:34:08;;;;;;;;;;;;;;;19.69;100.00;98612.22;5052089;28;20006;-43
2022/09/24 01:36:34;;;;;;;;;;;;;;;19.54;100.00;98617.59;5066660;28;20054;-44
2022/09/24 01:38:59;;;;;;;;;;;;;;;19.59;100.00;98618.13;5045081;28;20500;-43
2022/09/24 01:41:24;;;;;;;;;;;;;;;19.62;100.00;98604.81;5038946;28;20415;-44
2022/09/24 01:43:49;;;;;;;;;;;;;;;19.52;100.00;98614.28;5050581;28;19920;-44
2022/09/24 01:46:16;;;;;;;;;;;;;;;19.71;100.00;98610.34;5038582;28;20004;-43
2022/09/24 01:48:41;;;;;;;;;;;;;;;19.40;100.00;98615.19;5050495;28;19944;-44
2022/09/24 01:51:25;;;;;;;;;;;;;;;19.58;100.00;98613.81;5045695;28;19970;-44
2022/09/24 01:53:54;;;;;;;;;;;;;;;19.62;100.00;98609.22;5063417;28;20388;-43
2022/09/24 01:56:25;;;;;;;;;;;;;;;19.27;100.00;98604.81;5040197;28;19921;-43
2022/09/24 01:58:52;;;;;;;;;;;;;;;19.38;100.00;98601.41;5072238;28;19924;-43
2022/09/24 02:01:19;;;;;;;;;;;;;;;19.62;100.00;98604.81;5051001;28;19920;-43
2022/09/24 02:03:46;;;;;;;;;;;;;;;19.46;100.00;98606.91;5049341;28;19927;-43
2022/09/24 02:06:14;;;;;;;;;;;;;;;19.28;100.00;98610.91;5069458;28;19916;-43
2022/09/24 02:08:41;;;;;;;;;;;;;;;19.53;100.00;98595.06;5055806;28;19912;-43
2022/09/24 02:11:06;;;;;;;;;;;;;;;19.28;100.00;98603.06;5062776;28;19932;-43
2022/09/24 02:13:39;;;;;;;;;;;;;;;19.13;100.00;98607.63;5066251;28;19916;-43
2022/09/24 02:16:04;;;;;;;;;;;;;;;19.20;100.00;98608.84;5067194;28;20451;-43
2022/09/24 02:18:32;;;;;;;;;;;;;;;19.27;100.00;98604.81;5037636;28;19987;-43
2022/09/24 02:20:58;;;;;;;;;;;;;;;19.38;100.00;98604.03;5041162;28;19970;-43
2022/09/24 02:23:23;;;;;;;;;;;;;;;19.51;100.00;98596.13;5054662;28;19920;-46
2022/09/24 02:25:56;;;;;;;;;;;;;;;19.59;100.00;98599.81;5064135;28;20471;-43
2022/09/24 02:28:22;;;;;;;;;;;;;;;19.48;100.00;98593.72;5043920;28;19962;-43
2022/09/24 02:30:55;;;;;;;;;;;;;;;19.51;100.00;98604.78;5035541;28;19916;-43
2022/09/24 02:36:05;;;;;;;;;;;;;;;19.60;100.00;98593.66;5061806;28;19924;-44
2022/09/24 02:38:30;;;;;;;;;;;;;;;19.58;100.00;98592.91;5035769;28;19916;-44
2022/09/24 02:40:56;;;;;;;;;;;;;;;19.48;100.00;98591.13;5053942;28;19931;-43
2022/09/24 02:43:21;;;;;;;;;;;;;;;19.51;100.00;98583.88;5038652;28;20437;-43
2022/09/24 02:45:46;;;;;;;;;;;;;;;19.42;100.00;98589.81;5060869;28;20448;-43
2022/09/24 02:48:11;;;;;;;;;;;;;;;19.36;100.00;98579.81;5071278;28;20418;-44
2022/09/24 02:50:36;;;;;;;;;;;;;;;19.23;100.00;98583.34;5071537;28;20266;-44
2022/09/24 02:53:02;;;;;;;;;;;;;;;19.26;100.00;98587.50;5066373;28;20448;-43
2022/09/24 02:55:27;;;;;;;;;;;;;;;19.32;100.00;98588.84;5068968;28;20365;-43
2022/09/24 02:57:52;;;;;;;;;;;;;;;19.36;100.00;98574.59;5053152;28;19917;-44
2022/09/24 03:00:19;;;;;;;;;;;;;;;19.33;100.00;98578.28;5059072;28;19916;-43
2022/09/24 03:02:45;;;;;;;;;;;;;;;19.25;100.00;98583.25;5072271;28;19913;-43
2022/09/24 03:05:10;;;;;;;;;;;;;;;19.23;100.00;98583.34;5062609;28;19923;-44
2022/09/24 03:07:35;;;;;;;;;;;;;;;19.25;100.00;98585.00;5053138;28;19970;-44
2022/09/24 03:10:00;;;;;;;;;;;;;;;19.26;100.00;98582.28;5052401;28;19917;-43
2022/09/24 03:12:25;;;;;;;;;;;;;;;19.23;100.00;98578.13;5057297;28;19970;-43
2022/09/24 03:14:51;;;;;;;;;;;;;;;19.31;100.00;98574.13;5055310;28;19916;-43
2022/09/24 03:17:16;;;;;;;;;;;;;;;19.21;100.00;98574.78;5059583;28;20055;-44
2022/09/24 03:19:41;;;;;;;;;;;;;;;19.29;100.00;98570.78;5061061;28;19982;-44
2022/09/24 03:22:06;;;;;;;;;;;;;;;19.31;100.00;98563.66;5067609;28;19970;-43
2022/09/24 03:24:32;;;;;;;;;;;;;;;19.18;100.00;98574.19;5052540;28;19912;-43
2022/09/24 03:26:57;;;;;;;;;;;;;;;19.27;100.00;98563.06;5067442;28;19917;-44
2022/09/24 03:30:58;;;;;;;;;;;;;;;19.15;100.00;98571.81;5060159;28;20002;-43
2022/09/24 03:32:07;;;;;;;;;;;;;;;19.18;100.00;98572.44;5061883;28;19916;-43
2022/09/24 03:34:32;;;;;;;;;;;;;;;19.11;100.00;98580.81;5070753;28;19912;-43
2022/09/24 03:36:58;;;;;;;;;;;;;;;19.00;100.00;98581.63;5055152;28;19920;-44
2022/09/24 03:39:23;;;;;;;;;;;;;;;19.05;100.00;98579.50;5064737;28;19924;-43
2022/09/24 03:41:48;;;;;;;;;;;;;;;19.05;100.00;98582.09;5052519;28;19920;-44
2022/09/24 03:44:13;;;;;;;;;;;;;;;19.02;100.00;98570.13;5051928;28;19912;-44
2022/09/24 03:46:38;;;;;;;;;;;;;;;19.00;100.00;98572.00;5061062;28;19956;-43
2022/09/24 03:49:04;;;;;;;;;;;;;;;19.08;100.00;98573.22;5069008;28;19916;-45
2022/09/24 03:51:29;;;;;;;;;;;;;;;18.95;100.00;98573.28;5055063;28;19978;-43
2022/09/24 03:53:54;;;;;;;;;;;;;;;18.98;100.00;98573.88;5050969;28;19912;-45
2022/09/24 03:56:19;;;;;;;;;;;;;;;18.94;100.00;98572.44;5062174;28;20690;-45
2022/09/24 03:58:46;;;;;;;;;;;;;;;19.04;100.00;98572.59;5071140;28;20481;-45
2022/09/24 04:01:12;;;;;;;;;;;;;;;18.97;100.00;98574.81;5057916;28;19956;-45
2022/09/24 04:03:37;;;;;;;;;;;;;;;19.03;100.00;98570.94;5052141;28;19959;-45
2022/09/24 04:06:02;;;;;;;;;;;;;;;19.08;100.00;98568.81;5048420;28;19923;-45
2022/09/24 04:08:28;;;;;;;;;;;;;;;19.08;100.00;98565.38;5059870;28;19923;-45
2022/09/24 04:10:54;;;;;;;;;;;;;;;19.08;100.00;98568.81;5062519;28;19959;-45
2022/09/24 04:13:19;;;;;;;;;;;;;;;19.06;100.00;98560.25;5071005;28;19913;-45
2022/09/24 04:15:44;;;;;;;;;;;;;;;19.10;100.00;98553.88;5059260;28;20356;-45
2022/09/24 04:18:10;;;;;;;;;;;;;;;18.93;100.00;98562.97;5064595;28;19967;-44
2022/09/24 04:20:35;;;;;;;;;;;;;;;18.99;100.00;98553.84;5063526;28;19926;-45
2022/09/24 04:23:00;;;;;;;;;;;;;;;19.05;100.00;98553.41;5079054;28;19928;-44
2022/09/24 04:25:29;;;;;;;;;;;;;;;18.84;100.00;98549.75;5056177;28;19931;-45
2022/09/24 04:27:55;;;;;;;;;;;;;;;18.78;100.00;98556.25;5035742;28;20456;-45
2022/09/24 04:30:21;;;;;;;;;;;;;;;18.94;100.00;98548.13;5061635;28;19923;-45
2022/09/24 04:32:46;;;;;;;;;;;;;;;19.03;100.00;98550.06;5057433;28;19920;-44
2022/09/24 04:35:11;;;;;;;;;;;;;;;18.92;100.00;98563.06;5052921;28;20343;-45
2022/09/24 04:37:37;;;;;;;;;;;;;;;18.99;100.00;98559.88;5066221;28;19951;-46
2022/09/24 04:40:11;;;;;;;;;;;;;;;18.97;100.00;98561.78;5052190;28;19969;-45
2022/09/24 04:42:36;;;;;;;;;;;;;;;18.92;100.00;98563.06;5056459;28;20715;-45
2022/09/24 04:45:01;;;;;;;;;;;;;;;18.87;100.00;98557.38;5056155;28;19939;-45
2022/09/24 04:47:27;;;;;;;;;;;;;;;18.92;100.00;98558.69;5062418;28;19917;-45
2022/09/24 04:49:52;;;;;;;;;;;;;;;18.79;100.00;98569.19;5067083;28;20508;-46
2022/09/24 04:52:17;;;;;;;;;;;;;;;18.92;100.00;98560.47;5051013;28;20504;-45
2022/09/24 04:54:46;;;;;;;;;;;;;;;18.91;100.00;98566.63;5054009;28;20412;-45
2022/09/24 04:57:13;;;;;;;;;;;;;;;18.99;100.00;98569.50;5050651;28;19928;-45
2022/09/24 04:59:39;;;;;;;;;;;;;;;18.98;100.00;98570.47;5033111;28;20417;-45
2022/09/24 05:02:07;;;;;;;;;;;;;;;19.01;100.00;98578.06;5072963;28;20042;-46
2022/09/24 05:04:33;;;;;;;;;;;;;;;18.99;100.00;98572.09;5052687;28;19917;-46
2022/09/24 05:06:58;;;;;;;;;;;;;;;18.95;100.00;98573.28;5051187;28;19916;-46
2022/09/24 05:09:23;;;;;;;;;;;;;;;18.93;100.00;98569.94;5050314;28;19951;-46
2022/09/24 05:11:49;;;;;;;;;;;;;;;18.97;100.00;98569.59;5063465;28;19951;-46
2022/09/24 05:14:14;;;;;;;;;;;;;;;18.99;100.00;98572.09;5058989;28;19960;-46
2022/09/24 05:16:40;;;;;;;;;;;;;;;19.06;100.00;98565.47;5064717;28;19927;-46
2022/09/24 05:19:05;;;;;;;;;;;;;;;19.07;100.00;98564.56;5065892;28;19913;-46
2022/09/24 05:21:30;;;;;;;;;;;;;;;19.07;100.00;98569.78;5056868;28;19917;-46
2022/09/24 05:23:55;;;;;;;;;;;;;;;19.10;100.00;98571.31;5037855;28;20340;-46
2022/09/24 05:29:04;;;;;;;;;;;;;;;18.48;100.00;98559.28;5060638;28;20385;-46
2022/09/24 05:31:29;;;;;;;;;;;;;;;18.65;100.00;98558.88;5067824;28;19959;-45
2022/09/24 05:33:55;;;;;;;;;;;;;;;18.58;100.00;98555.03;5065284;28;19924;-45
2022/09/24 05:36:21;;;;;;;;;;;;;;;18.71;100.00;98560.22;5060833;28;19921;-46
2022/09/24 05:38:46;;;;;;;;;;;;;;;18.72;100.00;98570.53;5055580;28;20550;-46
2022/09/24 05:41:12;;;;;;;;;;;;;;;18.57;100.00;98561.22;5075371;28;19935;-46
2022/09/24 05:43:37;;;;;;;;;;;;;;;17.91;100.00;98571.91;5075647;28;19913;-45
2022/09/24 05:46:03;;;;;;;;;;;;;;;18.71;100.00;98557.63;5054672;28;19921;-46
2022/09/24 05:48:28;;;;;;;;;;;;;;;18.30;100.00;98570.06;5050896;28;19917;-45
2022/09/24 05:50:56;;;;;;;;;;;;;;;18.50;100.00;98567.81;5073293;28;19968;-45
2022/09/24 05:53:22;;;;;;;;;;;;;;;18.65;100.00;98571.91;5049018;28;20370;-46
2022/09/24 05:55:47;;;;;;;;;;;;;;;18.42;100.00;98570.97;5068339;28;19927;-46
2022/09/24 05:58:12;;;;;;;;;;;;;;;17.71;100.00;98580.22;5051020;28;20321;-45
2022/09/24 06:00:37;;;;;;;;;;;;;;;18.41;100.00;98571.09;5032212;28;19916;-45
2022/09/24 06:03:04;;;;;;;;;;;;;;;18.53;100.00;98578.03;5051669;28;19919;-45
2022/09/24 06:05:29;;;;;;;;;;;;;;;18.51;100.00;98580.72;5032025;28;19913;-45
2022/09/24 06:07:55;;;;;;;;;;;;;;;18.39;100.00;98579.84;5050119;28;19935;-45
2022/09/24 06:10:20;;;;;;;;;;;;;;;18.70;100.00;98579.41;5060074;28;19920;-46
2022/09/24 06:12:45;;;;;;;;;;;;;;;17.75;100.00;98581.69;5051347;28;19921;-44
2022/09/24 06:15:12;;;;;;;;;;;;;;;17.61;100.00;98576.56;5052992;28;19923;-46
2022/09/24 06:17:38;;;;;;;;;;;;;;;18.01;100.00;98577.31;5056543;28;19966;-45
2022/09/24 06:20:03;;;;;;;;;;;;;;;18.31;100.00;98566.50;5047470;28;19917;-45
2022/09/24 06:22:28;;;;;;;;;;;;;;;18.12;100.00;98563.53;5071701;28;19913;-46
2022/09/24 06:24:53;;;;;;;;;;;;;;;17.91;100.00;98569.28;5049388;28;19920;-45
2022/09/24 06:27:19;;;;;;;;;;;;;;;18.74;100.00;98575.63;5030632;28;19959;-46
2022/09/24 06:29:44;;;;;;;;;;;;;;;18.79;100.00;98570.94;5050175;28;19917;-45
2022/09/24 06:32:09;;;;;;;;;;;;;;;19.10;100.00;98566.09;5056910;28;19921;-45
2022/09/24 06:34:34;;;;;;;;;;;;;;;19.23;100.00;98572.91;5052753;28;19917;-45
2022/09/24 06:37:00;;;;;;;;;;;;;;;18.56;100.00;98569.97;5053694;28;19921;-45
2022/09/24 06:39:25;;;;;;;;;;;;;;;18.07;100.00;98574.28;5053273;28;20324;-45
2022/09/24 06:41:51;;;;;;;;;;;;;;;18.81;100.00;98574.28;5053153;28;19919;-45
2022/09/24 06:44:18;;;;;;;;;;;;;;;18.11;100.00;98578.34;5052564;28;20424;-45
2022/09/24 06:46:44;;;;;;;;;;;;;;;17.78;100.00;98584.06;5067664;28;20039;-45
2022/09/24 06:49:09;;;;;;;;;;;;;;;18.11;100.00;98577.47;5073372;28;19913;-45
2022/09/24 06:51:34;;;;;;;;;;;;;;;18.35;100.00;98575.78;5067749;28;19924;-46
2022/09/24 06:53:59;;;;;;;;;;;;;;;17.96;100.00;98584.59;5052802;28;20277;-45
2022/09/24 06:56:25;;;;;;;;;;;;;;;18.05;100.00;98578.75;5062359;28;20389;-45
2022/09/24 06:58:50;;;;;;;;;;;;;;;18.22;100.00;98580.19;5059932;28;20317;-45
2022/09/24 07:01:15;;;;;;;;;;;;;;;18.25;100.00;98573.94;5056521;28;20278;-45
2022/09/24 07:03:40;;;;;;;;;;;;;;;17.74;100.00;98580.00;5052133;28;20678;-45
2022/09/24 07:06:06;;;;;;;;;;;;;;;17.50;100.00;98596.34;5068885;28;20716;-46
2022/09/24 07:08:31;;;;;;;;;;;;;;;18.43;100.00;98580.47;5053233;28;19913;-45
2022/09/24 07:10:56;;;;;;;;;;;;;;;18.63;100.00;98583.41;5053107;28;19927;-46
2022/09/24 07:13:21;;;;;;;;;;;;;;;19.12;100.00;98574.66;5068383;28;19920;-45
2022/09/24 07:15:48;;;;;;;;;;;;;;;19.52;100.00;98574.28;5069115;28;20277;-45
2022/09/24 07:18:13;;;;;;;;;;;;;;;18.93;100.00;98580.38;5071366;28;20449;-45
2022/09/24 07:20:39;;;;;;;;;;;;;;;18.18;100.00;98594.38;5061281;28;19963;-45
2022/09/24 07:23:04;;;;;;;;;;;;;;;18.16;100.00;98591.88;5058309;28;20366;-45
2022/09/24 07:25:30;;;;;;;;;;;;;;;18.50;100.00;98583.47;5052304;28;19920;-46
2022/09/24 07:27:58;;;;;;;;;;;;;;;18.69;100.00;98589.00;5054492;28;19936;-45
2022/09/24 07:30:24;;;;;;;;;;;;;;;18.97;100.00;98587.03;5049912;28;20350;-46
2022/09/24 07:32:53;;;;;;;;;;;;;;;18.97;100.00;98593.09;5051884;28;20007;-46
2022/09/24 07:35:19;;;;;;;;;;;;;;;19.08;100.00;98589.69;5051991;28;19917;-45
2022/09/24 07:37:45;;;;;;;;;;;;;;;18.88;100.00;98604.19;5052521;28;19963;-45
2022/09/24 07:40:10;;;;;;;;;;;;;;;18.50;100.00;98593.91;5051762;28;19916;-46
2022/09/24 07:42:36;;;;;;;;;;;;;;;18.70;100.00;98603.75;5060647;28;20001;-46
2022/09/24 07:45:01;;;;;;;;;;;;;;;18.49;100.00;98597.44;5067154;28;19966;-46
2022/09/24 07:47:26;;;;;;;;;;;;;;;18.73;100.00;98611.34;5054749;28;19927;-46
2022/09/24 07:49:51;;;;;;;;;;;;;;;18.55;100.00;98597.81;5051740;28;19912;-46
2022/09/24 07:52:17;;;;;;;;;;;;;;;19.72;100.00;98597.13;5035435;28;19924;-45
2022/09/24 07:54:42;;;;;;;;;;;;;;;19.55;100.00;98598.38;5055218;28;19966;-46
2022/09/24 07:57:13;;;;;;;;;;;;;;;19.83;100.00;98598.94;5051865;28;19921;-46
2022/09/24 07:59:39;;;;;;;;;;;;;;;19.31;100.00;98610.66;5051262;28;19995;-45
2022/09/24 08:02:09;;;;;;;;;;;;;;;19.69;100.00;98609.63;5035169;28;19928;-45
2022/09/24 08:04:35;;;;;;;;;;;;;;;19.98;100.00;98600.38;5034485;28;19916;-46
2022/09/24 08:07:00;;;;;;;;;;;;;;;20.28;100.00;98606.78;5071559;28;20095;-46
2022/09/24 08:09:25;;;;;;;;;;;;;;;19.25;100.00;98618.94;5061658;28;19920;-45
2022/09/24 08:11:50;;;;;;;;;;;;;;;20.07;100.00;98611.91;5076191;28;19923;-44
2022/09/24 08:14:15;;;;;;;;;;;;;;;20.70;100.00;98606.97;5059401;28;19920;-44
2022/09/24 08:16:41;;;;;;;;;;;;;;;20.41;100.00;98601.41;5066460;28;19925;-44
2022/09/24 08:19:12;;;;;;;;;;;;;;;20.25;100.00;98599.16;5059595;28;19925;-43
2022/09/24 08:21:37;;;;;;;;;;;;;;;20.36;100.00;98609.63;5048057;28;20480;-45
2022/09/24 08:24:03;;;;;;;;;;;;;;;20.65;100.00;98606.53;5058409;28;19992;-44
2022/09/24 08:26:28;;;;;;;;;;;;;;;19.81;100.00;98613.91;5063273;28;20014;-44
2022/09/24 08:28:53;;;;;;;;;;;;;;;20.61;100.00;98597.25;5072211;28;19940;-44
2022/09/24 08:31:19;;;;;;;;;;;;;;;20.53;100.00;98599.63;5053473;28;19916;-44
2022/09/24 08:33:45;;;;;;;;;;;;;;;20.91;100.00;98593.13;5050046;28;20381;-44
2022/09/24 08:36:10;;;;;;;;;;;;;;;21.86;100.00;98590.47;5049307;28;19938;-44
2022/09/24 08:38:35;;;;;;;;;;;;;;;21.40;100.00;98599.56;5050730;28;20966;-44
2022/09/24 08:41:12;;;;;;;;;;;;;;;21.27;100.00;98595.34;5048611;28;19948;-44
2022/09/24 08:43:56;;;;;;;;;;;;;;;21.68;100.00;98592.88;5048771;28;20305;-44
2022/09/24 08:49:15;;;;;;;;;;;;;;;22.77;100.00;98591.34;5035312;28;19923;-44
2022/09/24 08:52:04;;;;;;;;;;;;;;;22.96;100.00;98591.34;5047745;28;20083;-44
2022/09/24 08:54:29;;;;;;;;;;;;;;;22.59;100.00;98598.22;5037407;28;19924;-45
2022/09/24 08:56:56;;;;;;;;;;;;;;;22.46;100.00;98593.22;5049931;28;19927;-44
2022/09/24 08:59:23;;;;;;;;;;;;;;;22.57;100.00;98594.91;5032777;28;19916;-44
2022/09/24 09:02:07;;;;;;;;;;;;;;;23.20;100.00;98598.03;5051127;28;19924;-44
2022/09/24 09:04:36;;;;;;;;;;;;;;;22.88;100.00;98598.25;5030437;28;20286;-44
2022/09/24 09:07:10;;;;;;;;;;;;;;;23.08;100.00;98601.72;5051266;28;19920;-46
2022/09/24 09:09:38;;;;;;;;;;;;;;;23.02;100.00;98599.69;5050893;28;19924;-44
2022/09/24 09:12:04;;;;;;;;;;;;;;;23.10;100.00;98607.69;5050940;28;20019;-44
2022/09/24 09:14:50;;;;;;;;;;;;;;;22.70;100.00;98606.81;5033112;28;19986;-45
2022/09/24 09:17:15;;;;;;;;;;;;;;;22.52;100.00;98609.25;5032331;28;19929;-45
2022/09/24 09:19:40;;;;;;;;;;;;;;;22.98;100.00;98614.84;5050589;28;19917;-44
2022/09/24 09:22:12;;;;;;;;;;;;;;;22.82;100.00;98607.50;5050858;28;19924;-45
2022/09/24 09:24:41;;;;;;;;;;;;;;;23.37;100.00;98607.81;5049295;28;19916;-45
2022/09/24 09:27:09;;;;;;;;;;;;;;;23.41;100.00;98610.16;5050957;28;19950;-45
2022/09/24 09:29:35;;;;;;;;;;;;;;;23.46;100.00;98613.19;5048460;28;19920;-44
2022/09/24 09:32:19;;;;;;;;;;;;;;;22.90;100.00;98615.53;5050189;28;20803;-45
2022/09/24 09:34:46;;;;;;;;;;;;;;;21.61;100.00;98629.25;5048105;28;19998;-44
2022/09/24 09:37:21;;;;;;;;;;;;;;;22.97;100.00;98606.13;5047578;28;19936;-45
2022/09/24 09:39:46;;;;;;;;;;;;;;;23.30;100.00;98603.25;5030176;28;20016;-45
2022/09/24 09:42:35;;;;;;;;;;;;;;;23.68;100.00;98607.63;5049159;28;19974;-44
2022/09/24 09:45:11;;;;;;;;;;;;;;;22.58;100.00;98609.66;5049248;28;19945;-44
2022/09/24 09:47:44;;;;;;;;;;;;;;;22.25;100.00;98614.28;5029947;28;19974;-44
2022/09/24 09:50:28;;;;;;;;;;;;;;;23.08;100.00;98609.63;5031439;28;19917;-45
2022/09/24 09:52:54;;;;;;;;;;;;;;;22.68;100.00;98613.16;5050030;28;20014;-45
2022/09/24 09:55:21;;;;;;;;;;;;;;;23.01;100.00;98605.88;5031183;28;19931;-45
2022/09/24 09:57:47;;;;;;;;;;;;;;;23.30;100.00;98606.72;5032773;28;19920;-44
2022/09/24 10:00:25;;;;;;;;;;;;;;;21.99;100.00;98611.25;5050244;28;19927;-49
2022/09/24 10:02:52;;;;;;;;;;;;;;;23.30;100.00;98606.72;5050547;28;20043;-45
2022/09/24 10:05:18;;;;;;;;;;;;;;;22.61;100.00;98605.00;5032869;28;19921;-44
2022/09/24 10:07:44;;;;;;;;;;;;;;;22.20;100.00;98625.13;5053747;28;19924;-45
2022/09/24 10:10:15;;;;;;;;;;;;;;;22.16;100.00;98617.66;5054272;28;19921;-46
2022/09/24 10:12:40;;;;;;;;;;;;;;;23.46;100.00;98600.88;5052764;28;19921;-44
2022/09/24 10:15:19;;;;;;;;;;;;;;;23.75;100.00;98600.84;5053295;28;20369;-44
2022/09/24 10:17:45;;;;;;;;;;;;;;;23.60;100.00;98594.34;5052436;28;19971;-45
2022/09/24 10:20:13;;;;;;;;;;;;;;;24.48;100.00;98594.91;5034967;28;19931;-44
2022/09/24 10:22:39;;;;;;;;;;;;;;;23.22;100.00;98601.34;5053027;28;20345;-46
2022/09/24 10:25:04;;;;;;;;;;;;;;;23.89;99.28;98582.97;5035699;28;19923;-45
2022/09/24 10:27:30;;;;;;;;;;;;;;;24.35;98.06;98594.38;5036110;28;19917;-45
2022/09/24 10:32:40;;;;;;;;;;;;;;;23.10;100.00;98597.19;5051661;28;19931;-45
2022/09/24 10:35:41;;;;;;;;;;;;;;;23.24;100.00;98603.81;5052205;28;19924;-45
2022/09/24 10:38:15;;;;;;;;;;;;;;;22.53;100.00;98584.69;4980356;28;19926;-46
2022/09/24 10:40:40;;;;;;;;;;;;;;;23.04;99.63;98582.81;5041112;28;19921;-45
2022/09/24 10:43:06;;;;;;;;;;;;;;;23.14;100.00;98585.44;5050757;28;20001;-45
2022/09/24 10:45:45;;;;;;;;;;;;;;;23.18;100.00;98599.94;5033719;28;19927;-46
2022/09/24 10:48:10;;;;;;;;;;;;;;;23.56;100.00;98600.84;5035827;28;20949;-46
2022/09/24 10:50:45;;;;;;;;;;;;;;;23.10;100.00;98607.69;5051864;28;19921;-46
2022/09/24 10:53:12;;;;;;;;;;;;;;;22.35;100.00;98612.50;5053483;28;19981;-45
2022/09/24 10:55:38;;;;;;;;;;;;;;;22.04;100.00;98615.13;5050195;28;19921;-45
2022/09/24 10:58:07;;;;;;;;;;;;;;;22.68;100.00;98605.28;5051344;28;19925;-45
2022/09/24 11:00:38;;;;;;;;;;;;;;;22.33;100.00;98619.69;5024769;28;20357;-45
2022/09/24 11:03:06;;;;;;;;;;;;;;;22.15;100.00;98611.59;5051928;28;19963;-45
2022/09/24 11:05:35;;;;;;;;;;;;;;;21.77;100.00;98612.25;5052952;28;19956;-44
2022/09/24 11:08:03;;;;;;;;;;;;;;;23.08;100.00;98599.09;5033448;28;19917;-45
2022/09/24 11:10:31;;;;;;;;;;;;;;;22.38;100.00;98607.00;5052580;28;20573;-45
2022/09/24 11:13:15;;;;;;;;;;;;;;;23.47;100.00;98597.31;5052153;28;19995;-44
2022/09/24 11:15:59;;;;;;;;;;;;;;;23.82;100.00;98595.84;5051340;28;19920;-44
2022/09/24 11:18:24;;;;;;;;;;;;;;;23.92;100.00;98590.56;5034568;28;20346;-45
2022/09/24 11:20:52;;;;;;;;;;;;;;;24.60;99.03;98590.25;5051688;28;19935;-45
2022/09/24 11:23:36;;;;;;;;;;;;;;;25.01;97.53;98586.19;5035889;28;19924;-45
2022/09/24 11:26:01;;;;;;;;;;;;;;;24.07;98.20;98588.31;5052732;28;19952;-45
2022/09/24 11:28:38;;;;;;;;;;;;;;;23.24;100.00;98596.78;5050373;28;20361;-45
2022/09/24 11:31:09;;;;;;;;;;;;;;;24.22;100.00;98589.44;5053401;28;20388;-45
2022/09/24 11:33:40;;;;;;;;;;;;;;;24.32;100.00;98600.78;5050701;28;20242;-44
2022/09/24 11:36:15;;;;;;;;;;;;;;;24.31;100.00;98598.28;5033690;28;19924;-45
2022/09/24 11:38:47;;;;;;;;;;;;;;;24.16;100.00;98603.22;5032360;28;19924;-45
2022/09/24 11:41:12;;;;;;;;;;;;;;;24.30;100.00;98594.81;5052254;28;19924;-45
2022/09/24 11:43:41;;;;;;;;;;;;;;;23.92;100.00;98588.75;5051698;28;19916;-44
2022/09/24 11:46:21;;;;;;;;;;;;;;;24.11;100.00;98593.13;5052135;28;19924;-46
2022/09/24 11:48:53;;;;;;;;;;;;;;;23.61;100.00;98590.78;5033842;28;20007;-45
2022/09/24 11:51:28;;;;;;;;;;;;;;;23.75;100.00;98592.16;5049163;28;19920;-44
2022/09/24 11:54:14;;;;;;;;;;;;;;;24.32;99.79;98594.69;5050732;28;19927;-44
2022/09/24 11:56:41;;;;;;;;;;;;;;;24.69;97.78;98583.28;5033688;28;19974;-45
2022/09/24 11:59:25;;;;;;;;;;;;;;;24.86;95.93;98590.38;5051090;28;20700;-45
2022/09/24 12:01:53;;;;;;;;;;;;;;;24.39;97.93;98590.50;5051147;28;19997;-44
2022/09/24 12:04:20;;;;;;;;;;;;;;;24.42;98.23;98590.19;5031466;28;20428;-45
2022/09/24 12:06:51;;;;;;;;;;;;;;;24.62;95.50;98583.84;5032938;28;19920;-44
2022/09/24 12:09:16;;;;;;;;;;;;;;;24.70;94.77;98583.13;5031008;28;20578;-45
2022/09/24 12:11:44;;;;;;;;;;;;;;;24.34;97.13;98579.59;5049223;28;19917;-44
2022/09/24 12:14:19;;;;;;;;;;;;;;;24.19;97.66;98582.69;5040827;28;19991;-45
2022/09/24 12:16:44;;;;;;;;;;;;;;;23.86;98.40;98578.00;5051041;28;19927;-45
2022/09/24 12:19:18;;;;;;;;;;;;;;;23.41;100.00;98594.41;5032835;28;20360;-45
2022/09/24 12:21:44;;;;;;;;;;;;;;;22.77;100.00;98602.66;5033720;28;19927;-45
2022/09/24 12:24:17;;;;;;;;;;;;;;;22.54;100.00;98599.44;5049753;28;19916;-45
2022/09/24 12:26:43;;;;;;;;;;;;;;;23.07;100.00;98594.84;5031881;28;20028;-45
2022/09/24 12:35:20;;;;;;;;;;;;;;;23.28;100.00;98597.31;5046407;28;20603;-46
2022/09/24 12:37:45;;;;;;;;;;;;;;;23.24;100.00;98596.78;5031497;28;20028;-45
2022/09/24 12:40:10;;;;;;;;;;;;;;;22.62;100.00;98613.69;5050099;28;20003;-46
2022/09/24 12:42:38;;;;;;;;;;;;;;;22.87;100.00;98607.91;5050387;28;19942;-45
2022/09/24 12:45:03;;;;;;;;;;;;;;;23.34;100.00;98600.22;5049670;28;19916;-45
2022/09/24 12:47:30;;;;;;;;;;;;;;;23.26;100.00;98602.69;5032572;28;19939;-44
2022/09/24 12:49:56;;;;;;;;;;;;;;;23.86;100.00;98599.03;5033379;28;19920;-45
2022/09/24 12:52:21;;;;;;;;;;;;;;;23.68;100.00;98591.84;5048402;28;19974;-45
2022/09/24 12:54:47;;;;;;;;;;;;;;;24.01;100.00;98593.13;5050587;28;19916;-45
2022/09/24 12:57:19;;;;;;;;;;;;;;;23.60;100.00;98586.47;5023879;28;19932;-45
2022/09/24 12:59:47;;;;;;;;;;;;;;;23.86;100.00;98583.25;5031425;28;19917;-45
2022/09/24 13:02:14;;;;;;;;;;;;;;;23.24;100.00;98588.91;5051245;28;19925;-46